sensor_id;sensor_type;location;lat;lon;timestamp;P1;durP1;ratioP1;P2;durP2;ratioP2
44578;SDS011;37422;51.402;0.016;2022-10-04T00:01:07;28.52;;;15.32;;
44578;SDS011;37422;51.402;0.016;2022-10-04T00:03:45;30.77;;;16.50;;
44578;SDS011;37422;51.402;0.016;2022-10-04T00:06:19;32.25;;;16.25;;
44578;SDS011;37422;51.402;0.016;2022-10-04T00:08:51;32.05;;;15.07;;
44578;SDS011;37422;51.402;0.016;2022-10-04T00:14:18;24.13;;;13.80;;
44578;SDS011;37422;51.402;0.016;2022-10-04T00:17:09;28.90;;;14.98;;
44578;SDS011;37422;51.402;0.016;2022-10-04T00:19:44;25.90;;;14.30;;
44578;SDS011;37422;51.402;0.016;2022-10-04T00:22:24;26.77;;;15.25;;
44578;SDS011;37422;51.402;0.016;2022-10-04T00:25:01;26.42;;;14.02;;
44578;SDS011;37422;51.402;0.016;2022-10-04T00:44:28;25.08;;;12.73;;
44578;SDS011;37422;51.402;0.016;2022-10-04T00:46:57;26.58;;;13.10;;
44578;SDS011;37422;51.402;0.016;2022-10-04T00:49:28;23.92;;;13.82;;
44578;SDS011;37422;51.402;0.016;2022-10-04T00:52:06;25.33;;;12.05;;
44578;SDS011;37422;51.402;0.016;2022-10-04T00:54:46;23.42;;;11.93;;
44578;SDS011;37422;51.402;0.016;2022-10-04T00:59:56;21.48;;;10.82;;
44578;SDS011;37422;51.402;0.016;2022-10-04T01:05:24;21.90;;;11.90;;
44578;SDS011;37422;51.402;0.016;2022-10-04T01:07:58;21.00;;;10.48;;
44578;SDS011;37422;51.402;0.016;2022-10-04T01:13:11;19.25;;;9.13;;
44578;SDS011;37422;51.402;0.016;2022-10-04T01:18:34;18.67;;;9.18;;
44578;SDS011;37422;51.402;0.016;2022-10-04T01:24:31;19.95;;;8.80;;
44578;SDS011;37422;51.402;0.016;2022-10-04T01:26:41;19.60;;;8.68;;
44578;SDS011;37422;51.402;0.016;2022-10-04T01:29:14;17.98;;;7.85;;
44578;SDS011;37422;51.402;0.016;2022-10-04T01:32:01;20.63;;;8.80;;
44578;SDS011;37422;51.402;0.016;2022-10-04T01:34:29;17.40;;;7.53;;
44578;SDS011;37422;51.402;0.016;2022-10-04T01:36:58;19.25;;;8.38;;
44578;SDS011;37422;51.402;0.016;2022-10-04T01:39:27;16.77;;;7.45;;
44578;SDS011;37422;51.402;0.016;2022-10-04T01:41:56;19.25;;;8.10;;
44578;SDS011;37422;51.402;0.016;2022-10-04T01:44:36;19.23;;;9.27;;
44578;SDS011;37422;51.402;0.016;2022-10-04T01:47:14;18.90;;;9.18;;
44578;SDS011;37422;51.402;0.016;2022-10-04T01:50:04;19.33;;;9.30;;
44578;SDS011;37422;51.402;0.016;2022-10-04T01:52:44;18.13;;;8.50;;
44578;SDS011;37422;51.402;0.016;2022-10-04T01:55:22;17.85;;;8.25;;
44578;SDS011;37422;51.402;0.016;2022-10-04T01:58:06;18.60;;;7.53;;
44578;SDS011;37422;51.402;0.016;2022-10-04T02:00:39;16.15;;;8.13;;
44578;SDS011;37422;51.402;0.016;2022-10-04T02:03:14;20.88;;;8.23;;
44578;SDS011;37422;51.402;0.016;2022-10-04T02:05:53;17.75;;;8.02;;
44578;SDS011;37422;51.402;0.016;2022-10-04T02:08:31;17.98;;;8.15;;
44578;SDS011;37422;51.402;0.016;2022-10-04T02:11:02;17.27;;;7.28;;
44578;SDS011;37422;51.402;0.016;2022-10-04T02:13:36;17.33;;;7.82;;
44578;SDS011;37422;51.402;0.016;2022-10-04T02:16:09;15.20;;;7.20;;
44578;SDS011;37422;51.402;0.016;2022-10-04T02:18:38;16.25;;;7.18;;
44578;SDS011;37422;51.402;0.016;2022-10-04T02:21:11;17.27;;;7.32;;
44578;SDS011;37422;51.402;0.016;2022-10-04T02:23:40;16.35;;;6.80;;
44578;SDS011;37422;51.402;0.016;2022-10-04T02:26:11;17.05;;;6.68;;
44578;SDS011;37422;51.402;0.016;2022-10-04T02:28:39;21.13;;;7.13;;
44578;SDS011;37422;51.402;0.016;2022-10-04T02:31:07;18.90;;;6.70;;
44578;SDS011;37422;51.402;0.016;2022-10-04T02:33:55;14.75;;;6.18;;
44578;SDS011;37422;51.402;0.016;2022-10-04T02:36:26;13.82;;;6.45;;
44578;SDS011;37422;51.402;0.016;2022-10-04T02:39:00;10.10;;;6.05;;
44578;SDS011;37422;51.402;0.016;2022-10-04T02:41:54;14.43;;;6.10;;
44578;SDS011;37422;51.402;0.016;2022-10-04T02:44:35;18.45;;;7.10;;
44578;SDS011;37422;51.402;0.016;2022-10-04T02:47:35;17.75;;;6.53;;
44578;SDS011;37422;51.402;0.016;2022-10-04T02:50:19;14.52;;;6.97;;
44578;SDS011;37422;51.402;0.016;2022-10-04T02:52:49;12.88;;;5.70;;
44578;SDS011;37422;51.402;0.016;2022-10-04T02:55:45;14.00;;;5.68;;
44578;SDS011;37422;51.402;0.016;2022-10-04T02:58:17;12.23;;;5.97;;
44578;SDS011;37422;51.402;0.016;2022-10-04T03:00:49;18.70;;;6.10;;
44578;SDS011;37422;51.402;0.016;2022-10-04T03:03:33;20.10;;;9.27;;
44578;SDS011;37422;51.402;0.016;2022-10-04T03:06:14;15.50;;;5.82;;
44578;SDS011;37422;51.402;0.016;2022-10-04T03:08:50;14.55;;;6.65;;
44578;SDS011;37422;51.402;0.016;2022-10-04T03:11:23;16.55;;;6.18;;
44578;SDS011;37422;51.402;0.016;2022-10-04T03:13:54;15.63;;;6.40;;
44578;SDS011;37422;51.402;0.016;2022-10-04T03:16:23;15.30;;;7.10;;
44578;SDS011;37422;51.402;0.016;2022-10-04T03:18:52;12.13;;;6.10;;
44578;SDS011;37422;51.402;0.016;2022-10-04T03:21:23;18.95;;;7.10;;
44578;SDS011;37422;51.402;0.016;2022-10-04T03:23:51;16.00;;;5.88;;
44578;SDS011;37422;51.402;0.016;2022-10-04T03:26:27;12.02;;;5.22;;
44578;SDS011;37422;51.402;0.016;2022-10-04T03:29:05;12.13;;;5.38;;
44578;SDS011;37422;51.402;0.016;2022-10-04T03:31:40;16.52;;;5.82;;
44578;SDS011;37422;51.402;0.016;2022-10-04T03:34:24;10.50;;;5.93;;
44578;SDS011;37422;51.402;0.016;2022-10-04T03:37:05;13.15;;;5.72;;
44578;SDS011;37422;51.402;0.016;2022-10-04T03:39:36;15.85;;;6.22;;
44578;SDS011;37422;51.402;0.016;2022-10-04T03:42:19;21.15;;;7.70;;
44578;SDS011;37422;51.402;0.016;2022-10-04T03:45:06;16.15;;;6.50;;
44578;SDS011;37422;51.402;0.016;2022-10-04T03:47:38;16.85;;;6.70;;
44578;SDS011;37422;51.402;0.016;2022-10-04T03:50:13;13.70;;;5.80;;
44578;SDS011;37422;51.402;0.016;2022-10-04T03:53:29;16.13;;;6.63;;
44578;SDS011;37422;51.402;0.016;2022-10-04T03:56:02;14.50;;;6.10;;
44578;SDS011;37422;51.402;0.016;2022-10-04T03:58:39;14.77;;;6.40;;
44578;SDS011;37422;51.402;0.016;2022-10-04T04:01:12;17.52;;;7.30;;
44578;SDS011;37422;51.402;0.016;2022-10-04T04:04:00;13.02;;;6.05;;
44578;SDS011;37422;51.402;0.016;2022-10-04T04:06:35;14.88;;;6.25;;
44578;SDS011;37422;51.402;0.016;2022-10-04T04:09:15;16.23;;;5.78;;
44578;SDS011;37422;51.402;0.016;2022-10-04T04:12:18;15.35;;;5.30;;
44578;SDS011;37422;51.402;0.016;2022-10-04T04:14:51;13.35;;;6.00;;
44578;SDS011;37422;51.402;0.016;2022-10-04T04:17:31;10.80;;;5.25;;
44578;SDS011;37422;51.402;0.016;2022-10-04T04:20:21;15.30;;;6.18;;
44578;SDS011;37422;51.402;0.016;2022-10-04T04:23:25;14.85;;;5.60;;
44578;SDS011;37422;51.402;0.016;2022-10-04T04:28:45;13.88;;;5.35;;
44578;SDS011;37422;51.402;0.016;2022-10-04T04:31:20;14.93;;;5.38;;
44578;SDS011;37422;51.402;0.016;2022-10-04T04:33:58;10.55;;;4.90;;
44578;SDS011;37422;51.402;0.016;2022-10-04T04:36:29;11.70;;;5.47;;
44578;SDS011;37422;51.402;0.016;2022-10-04T04:44:58;15.55;;;5.07;;
44578;SDS011;37422;51.402;0.016;2022-10-04T04:47:41;15.50;;;5.93;;
44578;SDS011;37422;51.402;0.016;2022-10-04T04:55:15;8.48;;;4.72;;
44578;SDS011;37422;51.402;0.016;2022-10-04T04:57:50;15.00;;;5.55;;
44578;SDS011;37422;51.402;0.016;2022-10-04T05:00:23;16.98;;;5.22;;
44578;SDS011;37422;51.402;0.016;2022-10-04T05:02:57;12.25;;;5.13;;
44578;SDS011;37422;51.402;0.016;2022-10-04T05:05:28;9.30;;;4.75;;
44578;SDS011;37422;51.402;0.016;2022-10-04T05:08:10;11.70;;;4.80;;
44578;SDS011;37422;51.402;0.016;2022-10-04T05:13:32;13.02;;;5.07;;
44578;SDS011;37422;51.402;0.016;2022-10-04T05:16:20;17.40;;;5.55;;
44578;SDS011;37422;51.402;0.016;2022-10-04T05:18:57;11.02;;;5.40;;
44578;SDS011;37422;51.402;0.016;2022-10-04T05:21:31;11.68;;;4.10;;
44578;SDS011;37422;51.402;0.016;2022-10-04T05:24:46;16.27;;;5.57;;
44578;SDS011;37422;51.402;0.016;2022-10-04T05:27:14;11.68;;;4.38;;
44578;SDS011;37422;51.402;0.016;2022-10-04T05:30:07;14.85;;;4.70;;
44578;SDS011;37422;51.402;0.016;2022-10-04T05:33:04;11.38;;;4.03;;
44578;SDS011;37422;51.402;0.016;2022-10-04T05:35:42;16.80;;;5.60;;
44578;SDS011;37422;51.402;0.016;2022-10-04T05:46:37;7.68;;;3.10;;
44578;SDS011;37422;51.402;0.016;2022-10-04T05:49:11;8.63;;;3.10;;
44578;SDS011;37422;51.402;0.016;2022-10-04T05:51:53;8.95;;;3.70;;
44578;SDS011;37422;51.402;0.016;2022-10-04T05:54:29;10.85;;;3.17;;
44578;SDS011;37422;51.402;0.016;2022-10-04T06:05:12;7.32;;;3.75;;
44578;SDS011;37422;51.402;0.016;2022-10-04T06:07:56;9.63;;;3.20;;
44578;SDS011;37422;51.402;0.016;2022-10-04T06:13:45;5.80;;;2.40;;
44578;SDS011;37422;51.402;0.016;2022-10-04T06:22:06;8.20;;;3.03;;
44578;SDS011;37422;51.402;0.016;2022-10-04T06:24:56;7.13;;;3.15;;
44578;SDS011;37422;51.402;0.016;2022-10-04T06:27:38;8.32;;;3.30;;
44578;SDS011;37422;51.402;0.016;2022-10-04T06:30:14;8.60;;;3.00;;
44578;SDS011;37422;51.402;0.016;2022-10-04T06:47:00;8.75;;;2.67;;
44578;SDS011;37422;51.402;0.016;2022-10-04T06:53:50;8.90;;;2.85;;
44578;SDS011;37422;51.402;0.016;2022-10-04T07:01:54;6.70;;;2.45;;
44578;SDS011;37422;51.402;0.016;2022-10-04T07:04:34;9.40;;;3.80;;
44578;SDS011;37422;51.402;0.016;2022-10-04T07:07:32;10.70;;;2.50;;
44578;SDS011;37422;51.402;0.016;2022-10-04T07:13:15;5.00;;;2.22;;
44578;SDS011;37422;51.402;0.016;2022-10-04T07:18:41;5.13;;;2.28;;
44578;SDS011;37422;51.402;0.016;2022-10-04T07:21:13;5.88;;;2.25;;
44578;SDS011;37422;51.402;0.016;2022-10-04T07:23:50;9.23;;;3.08;;
44578;SDS011;37422;51.402;0.016;2022-10-04T07:26:25;7.65;;;3.13;;
44578;SDS011;37422;51.402;0.016;2022-10-04T07:28:56;6.25;;;2.58;;
44578;SDS011;37422;51.402;0.016;2022-10-04T07:34:32;9.82;;;2.90;;
44578;SDS011;37422;51.402;0.016;2022-10-04T07:37:21;10.23;;;2.80;;
44578;SDS011;37422;51.402;0.016;2022-10-04T07:42:34;11.48;;;2.60;;
44578;SDS011;37422;51.402;0.016;2022-10-04T07:45:21;7.03;;;2.22;;
44578;SDS011;37422;51.402;0.016;2022-10-04T07:54:34;12.55;;;3.95;;
44578;SDS011;37422;51.402;0.016;2022-10-04T08:07:41;6.63;;;2.42;;
44578;SDS011;37422;51.402;0.016;2022-10-04T08:10:39;4.28;;;2.10;;
44578;SDS011;37422;51.402;0.016;2022-10-04T08:19:40;6.00;;;2.13;;
44578;SDS011;37422;51.402;0.016;2022-10-04T08:22:04;5.83;;;2.10;;
44578;SDS011;37422;51.402;0.016;2022-10-04T08:31:06;4.65;;;1.83;;
44578;SDS011;37422;51.402;0.016;2022-10-04T08:36:50;3.10;;;1.58;;
44578;SDS011;37422;51.402;0.016;2022-10-04T09:06:56;3.55;;;1.38;;
44578;SDS011;37422;51.402;0.016;2022-10-04T09:21:49;2.25;;;1.35;;
44578;SDS011;37422;51.402;0.016;2022-10-04T09:30:20;3.65;;;1.13;;
44578;SDS011;37422;51.402;0.016;2022-10-04T09:35:49;6.00;;;1.70;;
44578;SDS011;37422;51.402;0.016;2022-10-04T09:57:57;4.07;;;2.35;;
44578;SDS011;37422;51.402;0.016;2022-10-04T10:08:56;1.92;;;0.95;;
44578;SDS011;37422;51.402;0.016;2022-10-04T10:11:56;6.03;;;1.60;;
44578;SDS011;37422;51.402;0.016;2022-10-04T10:15:15;3.50;;;0.80;;
44578;SDS011;37422;51.402;0.016;2022-10-04T10:18:25;5.65;;;1.33;;
44578;SDS011;37422;51.402;0.016;2022-10-04T10:35:23;2.05;;;0.88;;
44578;SDS011;37422;51.402;0.016;2022-10-04T10:43:37;2.20;;;1.08;;
44578;SDS011;37422;51.402;0.016;2022-10-04T10:46:44;2.20;;;1.00;;
44578;SDS011;37422;51.402;0.016;2022-10-04T11:08:58;3.40;;;0.80;;
44578;SDS011;37422;51.402;0.016;2022-10-04T11:28:51;2.50;;;1.10;;
44578;SDS011;37422;51.402;0.016;2022-10-04T11:40:16;5.25;;;1.10;;
44578;SDS011;37422;51.402;0.016;2022-10-04T11:59:20;6.15;;;1.25;;
44578;SDS011;37422;51.402;0.016;2022-10-04T12:04:45;4.03;;;1.13;;
44578;SDS011;37422;51.402;0.016;2022-10-04T12:10:21;5.22;;;1.45;;
44578;SDS011;37422;51.402;0.016;2022-10-04T12:23:56;9.18;;;1.40;;
44578;SDS011;37422;51.402;0.016;2022-10-04T12:29:30;6.55;;;1.80;;
44578;SDS011;37422;51.402;0.016;2022-10-04T12:32:28;3.17;;;1.40;;
44578;SDS011;37422;51.402;0.016;2022-10-04T12:52:22;38.67;;;21.58;;
44578;SDS011;37422;51.402;0.016;2022-10-04T12:54:55;23.48;;;11.68;;
44578;SDS011;37422;51.402;0.016;2022-10-04T12:57:47;11.65;;;4.38;;
44578;SDS011;37422;51.402;0.016;2022-10-04T13:00:21;4.32;;;1.80;;
44578;SDS011;37422;51.402;0.016;2022-10-04T13:08:30;6.00;;;2.35;;
44578;SDS011;37422;51.402;0.016;2022-10-04T13:14:37;5.72;;;1.52;;
44578;SDS011;37422;51.402;0.016;2022-10-04T13:17:31;7.60;;;1.70;;
44578;SDS011;37422;51.402;0.016;2022-10-04T13:20:14;4.32;;;1.30;;
44578;SDS011;37422;51.402;0.016;2022-10-04T13:22:49;8.52;;;1.75;;
44578;SDS011;37422;51.402;0.016;2022-10-04T13:31:37;4.68;;;1.30;;
44578;SDS011;37422;51.402;0.016;2022-10-04T13:56:57;8.73;;;1.60;;
44578;SDS011;37422;51.402;0.016;2022-10-04T15:03:46;2.97;;;1.53;;
44578;SDS011;37422;51.402;0.016;2022-10-04T15:09:17;1.73;;;0.90;;
44578;SDS011;37422;51.402;0.016;2022-10-04T15:11:56;9.23;;;1.13;;
44578;SDS011;37422;51.402;0.016;2022-10-04T15:18:03;2.33;;;0.90;;
44578;SDS011;37422;51.402;0.016;2022-10-04T15:20:54;4.50;;;1.30;;
44578;SDS011;37422;51.402;0.016;2022-10-04T15:26:06;8.38;;;1.15;;
44578;SDS011;37422;51.402;0.016;2022-10-04T15:31:22;3.30;;;1.00;;
44578;SDS011;37422;51.402;0.016;2022-10-04T15:37:33;6.40;;;1.58;;
44578;SDS011;37422;51.402;0.016;2022-10-04T15:40:23;5.10;;;1.27;;
44578;SDS011;37422;51.402;0.016;2022-10-04T15:46:26;5.43;;;1.65;;
44578;SDS011;37422;51.402;0.016;2022-10-04T15:57:26;5.70;;;1.63;;
44578;SDS011;37422;51.402;0.016;2022-10-04T16:00:11;3.92;;;1.50;;
44578;SDS011;37422;51.402;0.016;2022-10-04T16:08:31;7.47;;;1.80;;
44578;SDS011;37422;51.402;0.016;2022-10-04T16:11:25;4.90;;;1.42;;
44578;SDS011;37422;51.402;0.016;2022-10-04T16:20:24;8.20;;;2.03;;
44578;SDS011;37422;51.402;0.016;2022-10-04T16:23:23;5.50;;;1.65;;
44578;SDS011;37422;51.402;0.016;2022-10-04T16:25:58;4.72;;;1.63;;
44578;SDS011;37422;51.402;0.016;2022-10-04T16:34:16;6.93;;;1.88;;
44578;SDS011;37422;51.402;0.016;2022-10-04T16:36:59;6.30;;;2.70;;
44578;SDS011;37422;51.402;0.016;2022-10-04T16:42:33;7.78;;;2.25;;
44578;SDS011;37422;51.402;0.016;2022-10-04T16:56:24;7.93;;;2.45;;
44578;SDS011;37422;51.402;0.016;2022-10-04T16:59:11;9.75;;;2.25;;
44578;SDS011;37422;51.402;0.016;2022-10-04T17:07:18;5.28;;;1.88;;
44578;SDS011;37422;51.402;0.016;2022-10-04T17:12:43;4.82;;;1.65;;
44578;SDS011;37422;51.402;0.016;2022-10-04T17:18:10;4.03;;;1.77;;
44578;SDS011;37422;51.402;0.016;2022-10-04T17:21:09;7.80;;;3.47;;
44578;SDS011;37422;51.402;0.016;2022-10-04T17:38:24;5.18;;;2.08;;
44578;SDS011;37422;51.402;0.016;2022-10-04T17:44:19;5.60;;;1.73;;
44578;SDS011;37422;51.402;0.016;2022-10-04T17:47:06;6.07;;;2.85;;
44578;SDS011;37422;51.402;0.016;2022-10-04T17:49:55;5.90;;;1.73;;
44578;SDS011;37422;51.402;0.016;2022-10-04T17:52:54;5.68;;;1.55;;
44578;SDS011;37422;51.402;0.016;2022-10-04T17:55:55;6.30;;;2.30;;
44578;SDS011;37422;51.402;0.016;2022-10-04T17:58:40;3.53;;;1.48;;
44578;SDS011;37422;51.402;0.016;2022-10-04T18:04:12;6.07;;;2.17;;
44578;SDS011;37422;51.402;0.016;2022-10-04T18:06:57;8.60;;;1.80;;
44578;SDS011;37422;51.402;0.016;2022-10-04T18:09:51;6.20;;;2.30;;
44578;SDS011;37422;51.402;0.016;2022-10-04T18:12:44;7.20;;;1.60;;
44578;SDS011;37422;51.402;0.016;2022-10-04T18:15:26;6.60;;;1.65;;
44578;SDS011;37422;51.402;0.016;2022-10-04T18:20:57;11.68;;;2.55;;
44578;SDS011;37422;51.402;0.016;2022-10-04T18:23:52;6.10;;;1.65;;
44578;SDS011;37422;51.402;0.016;2022-10-04T18:26:20;6.75;;;1.92;;
44578;SDS011;37422;51.402;0.016;2022-10-04T18:28:51;8.20;;;2.10;;
44578;SDS011;37422;51.402;0.016;2022-10-04T18:31:28;8.80;;;1.83;;
44578;SDS011;37422;51.402;0.016;2022-10-04T18:34:15;3.85;;;1.60;;
44578;SDS011;37422;51.402;0.016;2022-10-04T18:41:58;9.73;;;2.40;;
44578;SDS011;37422;51.402;0.016;2022-10-04T18:47:35;6.30;;;1.55;;
44578;SDS011;37422;51.402;0.016;2022-10-04T18:53:01;6.57;;;1.70;;
44578;SDS011;37422;51.402;0.016;2022-10-04T18:58:44;6.45;;;1.73;;
44578;SDS011;37422;51.402;0.016;2022-10-04T19:04:34;5.72;;;1.80;;
44578;SDS011;37422;51.402;0.016;2022-10-04T19:15:41;8.20;;;2.10;;
44578;SDS011;37422;51.402;0.016;2022-10-04T19:21:09;7.95;;;1.85;;
44578;SDS011;37422;51.402;0.016;2022-10-04T19:23:51;9.60;;;2.17;;
44578;SDS011;37422;51.402;0.016;2022-10-04T19:26:39;6.85;;;2.03;;
44578;SDS011;37422;51.402;0.016;2022-10-04T19:40:52;8.73;;;2.42;;
44578;SDS011;37422;51.402;0.016;2022-10-04T19:49:26;11.85;;;1.90;;
44578;SDS011;37422;51.402;0.016;2022-10-04T19:52:15;9.20;;;2.25;;
44578;SDS011;37422;51.402;0.016;2022-10-04T19:55:18;6.80;;;2.85;;
44578;SDS011;37422;51.402;0.016;2022-10-04T19:57:49;10.38;;;1.92;;
44578;SDS011;37422;51.402;0.016;2022-10-04T20:00:24;6.78;;;1.90;;
44578;SDS011;37422;51.402;0.016;2022-10-04T20:02:52;5.50;;;2.10;;
44578;SDS011;37422;51.402;0.016;2022-10-04T20:05:20;11.52;;;2.25;;
44578;SDS011;37422;51.402;0.016;2022-10-04T20:07:54;11.77;;;2.95;;
44578;SDS011;37422;51.402;0.016;2022-10-04T20:10:32;13.38;;;2.47;;
44578;SDS011;37422;51.402;0.016;2022-10-04T20:13:03;8.13;;;2.28;;
44578;SDS011;37422;51.402;0.016;2022-10-04T20:21:04;7.50;;;2.05;;
44578;SDS011;37422;51.402;0.016;2022-10-04T20:26:09;5.28;;;1.90;;
44578;SDS011;37422;51.402;0.016;2022-10-04T20:28:38;9.68;;;2.10;;
44578;SDS011;37422;51.402;0.016;2022-10-04T20:31:51;10.90;;;2.17;;
44578;SDS011;37422;51.402;0.016;2022-10-04T20:42:32;11.25;;;2.72;;
44578;SDS011;37422;51.402;0.016;2022-10-04T20:45:04;8.82;;;2.08;;
44578;SDS011;37422;51.402;0.016;2022-10-04T20:47:48;10.77;;;3.13;;
44578;SDS011;37422;51.402;0.016;2022-10-04T20:50:23;11.18;;;2.25;;
44578;SDS011;37422;51.402;0.016;2022-10-04T20:53:06;7.80;;;1.92;;
44578;SDS011;37422;51.402;0.016;2022-10-04T20:55:42;10.63;;;3.45;;
44578;SDS011;37422;51.402;0.016;2022-10-04T21:01:19;8.18;;;1.80;;
44578;SDS011;37422;51.402;0.016;2022-10-04T21:04:13;6.55;;;1.85;;
44578;SDS011;37422;51.402;0.016;2022-10-04T21:09:20;13.23;;;2.67;;
44578;SDS011;37422;51.402;0.016;2022-10-04T21:11:49;8.45;;;2.08;;
44578;SDS011;37422;51.402;0.016;2022-10-04T21:14:22;10.10;;;2.10;;
44578;SDS011;37422;51.402;0.016;2022-10-04T21:16:54;11.77;;;2.50;;
44578;SDS011;37422;51.402;0.016;2022-10-04T21:19:39;3.63;;;1.45;;
44578;SDS011;37422;51.402;0.016;2022-10-04T21:27:29;14.18;;;3.17;;
44578;SDS011;37422;51.402;0.016;2022-10-04T21:29:59;14.23;;;2.28;;
44578;SDS011;37422;51.402;0.016;2022-10-04T21:32:33;8.75;;;2.75;;
44578;SDS011;37422;51.402;0.016;2022-10-04T21:35:03;9.38;;;2.28;;
44578;SDS011;37422;51.402;0.016;2022-10-04T21:37:33;9.00;;;2.28;;
44578;SDS011;37422;51.402;0.016;2022-10-04T21:40:01;8.75;;;2.10;;
44578;SDS011;37422;51.402;0.016;2022-10-04T21:42:29;6.65;;;2.03;;
44578;SDS011;37422;51.402;0.016;2022-10-04T21:44:57;8.25;;;2.20;;
44578;SDS011;37422;51.402;0.016;2022-10-04T21:47:24;6.40;;;1.70;;
44578;SDS011;37422;51.402;0.016;2022-10-04T21:49:52;7.97;;;1.80;;
44578;SDS011;37422;51.402;0.016;2022-10-04T21:52:21;10.70;;;3.58;;
44578;SDS011;37422;51.402;0.016;2022-10-04T21:54:48;8.32;;;2.30;;
44578;SDS011;37422;51.402;0.016;2022-10-04T21:57:19;9.05;;;2.45;;
44578;SDS011;37422;51.402;0.016;2022-10-04T21:59:50;5.82;;;2.25;;
44578;SDS011;37422;51.402;0.016;2022-10-04T22:02:18;8.10;;;1.90;;
44578;SDS011;37422;51.402;0.016;2022-10-04T22:04:46;13.63;;;3.28;;
44578;SDS011;37422;51.402;0.016;2022-10-04T22:07:14;9.60;;;2.42;;
44578;SDS011;37422;51.402;0.016;2022-10-04T22:09:41;8.43;;;1.83;;
44578;SDS011;37422;51.402;0.016;2022-10-04T22:12:09;13.10;;;4.07;;
44578;SDS011;37422;51.402;0.016;2022-10-04T22:14:37;7.10;;;1.75;;
44578;SDS011;37422;51.402;0.016;2022-10-04T22:17:05;10.80;;;2.00;;
44578;SDS011;37422;51.402;0.016;2022-10-04T22:19:33;9.77;;;2.10;;
44578;SDS011;37422;51.402;0.016;2022-10-04T22:22:00;3.40;;;1.77;;
44578;SDS011;37422;51.402;0.016;2022-10-04T22:24:28;12.07;;;2.70;;
44578;SDS011;37422;51.402;0.016;2022-10-04T22:26:56;11.73;;;2.22;;
44578;SDS011;37422;51.402;0.016;2022-10-04T22:29:25;11.73;;;2.20;;
44578;SDS011;37422;51.402;0.016;2022-10-04T22:31:53;8.18;;;2.15;;
44578;SDS011;37422;51.402;0.016;2022-10-04T22:34:21;4.88;;;1.92;;
44578;SDS011;37422;51.402;0.016;2022-10-04T22:36:49;10.25;;;1.70;;
44578;SDS011;37422;51.402;0.016;2022-10-04T22:39:19;6.55;;;2.80;;
44578;SDS011;37422;51.402;0.016;2022-10-04T22:41:51;8.55;;;1.90;;
44578;SDS011;37422;51.402;0.016;2022-10-04T22:44:27;13.45;;;2.20;;
44578;SDS011;37422;51.402;0.016;2022-10-04T22:47:01;7.03;;;1.83;;
44578;SDS011;37422;51.402;0.016;2022-10-04T22:49:34;9.02;;;1.88;;
44578;SDS011;37422;51.402;0.016;2022-10-04T22:52:10;10.57;;;3.50;;
44578;SDS011;37422;51.402;0.016;2022-10-04T22:54:47;6.32;;;2.20;;
44578;SDS011;37422;51.402;0.016;2022-10-04T22:57:16;9.30;;;1.85;;
44578;SDS011;37422;51.402;0.016;2022-10-04T22:59:46;10.63;;;2.00;;
44578;SDS011;37422;51.402;0.016;2022-10-04T23:02:19;6.50;;;1.80;;
44578;SDS011;37422;51.402;0.016;2022-10-04T23:05:00;7.45;;;2.20;;
44578;SDS011;37422;51.402;0.016;2022-10-04T23:07:37;12.77;;;2.55;;
44578;SDS011;37422;51.402;0.016;2022-10-04T23:10:05;9.38;;;2.15;;
44578;SDS011;37422;51.402;0.016;2022-10-04T23:12:33;12.18;;;2.15;;
44578;SDS011;37422;51.402;0.016;2022-10-04T23:15:01;10.43;;;2.15;;
44578;SDS011;37422;51.402;0.016;2022-10-04T23:17:35;8.77;;;1.83;;
44578;SDS011;37422;51.402;0.016;2022-10-04T23:20:35;9.68;;;2.28;;
44578;SDS011;37422;51.402;0.016;2022-10-04T23:23:04;9.45;;;1.83;;
44578;SDS011;37422;51.402;0.016;2022-10-04T23:25:44;8.82;;;1.98;;
44578;SDS011;37422;51.402;0.016;2022-10-04T23:28:14;7.60;;;1.95;;
44578;SDS011;37422;51.402;0.016;2022-10-04T23:33:15;9.02;;;2.90;;
44578;SDS011;37422;51.402;0.016;2022-10-04T23:35:46;7.35;;;1.92;;
44578;SDS011;37422;51.402;0.016;2022-10-04T23:38:16;5.57;;;2.88;;
44578;SDS011;37422;51.402;0.016;2022-10-04T23:40:46;9.80;;;2.10;;
44578;SDS011;37422;51.402;0.016;2022-10-04T23:43:16;10.10;;;1.95;;
44578;SDS011;37422;51.402;0.016;2022-10-04T23:45:46;7.65;;;2.05;;
44578;SDS011;37422;51.402;0.016;2022-10-04T23:48:18;8.90;;;2.35;;
44578;SDS011;37422;51.402;0.016;2022-10-04T23:50:50;7.03;;;1.80;;
44578;SDS011;37422;51.402;0.016;2022-10-04T23:53:29;6.00;;;2.25;;
44578;SDS011;37422;51.402;0.016;2022-10-04T23:56:00;22.88;;;3.95;;
44578;SDS011;37422;51.402;0.016;2022-10-04T23:58:32;11.93;;;2.30;;
